createdAt,value
2022-12-20T00:01:15.607Z,1.83
2022-12-20T00:03:44.205Z,1.75
2022-12-20T00:06:12.317Z,1.82
2022-12-20T00:08:39.140Z,1.79
2022-12-20T00:11:07.650Z,1.77
2022-12-20T00:13:34.694Z,1.77
2022-12-20T00:16:07.356Z,1.86
2022-12-20T00:18:34.615Z,1.86
2022-12-20T00:21:02.894Z,1.86
2022-12-20T00:23:30.039Z,1.81
2022-12-20T00:26:07.835Z,1.82
2022-12-20T00:28:35.859Z,1.79
2022-12-20T00:31:04.843Z,1.78
2022-12-20T00:33:35.090Z,1.76
2022-12-20T00:36:02.040Z,1.72
2022-12-20T00:38:28.756Z,1.80
2022-12-20T00:41:10.506Z,1.86
2022-12-20T00:43:38.584Z,1.77
2022-12-20T00:46:06.831Z,1.69
2022-12-20T00:48:34.162Z,1.75
2022-12-20T00:51:03.611Z,1.76
2022-12-20T00:53:30.694Z,1.72
2022-12-20T00:55:58.742Z,1.71
2022-12-20T00:58:26.295Z,1.72
2022-12-20T01:00:56.467Z,1.80
2022-12-20T01:03:24.677Z,1.79
2022-12-20T01:05:56.893Z,1.63
2022-12-20T01:08:25.373Z,1.61
2022-12-20T01:10:59.726Z,1.71
2022-12-20T01:13:27.097Z,1.69
2022-12-20T01:15:53.866Z,1.62
2022-12-20T01:18:20.584Z,1.56
2022-12-20T01:20:47.474Z,1.67
2022-12-20T01:23:14.146Z,1.78
2022-12-20T01:25:40.749Z,1.76
2022-12-20T01:28:07.477Z,1.67
2022-12-20T01:30:34.101Z,1.73
2022-12-20T01:33:00.689Z,1.69
2022-12-20T01:35:27.314Z,1.70
2022-12-20T01:37:54.151Z,1.70
2022-12-20T01:40:20.742Z,1.77
2022-12-20T01:42:47.540Z,1.81
2022-12-20T01:45:25.334Z,1.77
2022-12-20T01:47:52.083Z,1.93
2022-12-20T01:50:18.904Z,1.89
2022-12-20T01:52:47.819Z,1.78
2022-12-20T01:55:24.677Z,1.89
2022-12-20T01:57:58.811Z,1.94
2022-12-20T02:00:25.777Z,1.85
2022-12-20T02:02:52.660Z,1.85
2022-12-20T02:05:22.574Z,1.86
2022-12-20T02:07:52.940Z,2.00
2022-12-20T02:10:22.922Z,1.99
2022-12-20T02:12:58.882Z,1.95
2022-12-20T02:15:30.786Z,2.01
2022-12-20T02:18:19.018Z,1.94
2022-12-20T02:20:48.568Z,1.94
2022-12-20T02:23:32.364Z,1.82
2022-12-20T02:26:17.749Z,1.91
2022-12-20T02:29:21.011Z,1.93
2022-12-20T02:32:14.481Z,1.91
2022-12-20T02:34:42.528Z,1.96
2022-12-20T02:37:10.162Z,1.99
2022-12-20T02:39:40.048Z,2.06
2022-12-20T02:42:12.265Z,1.96
2022-12-20T02:45:03.193Z,1.85
2022-12-20T02:47:35.247Z,1.80
2022-12-20T02:50:04.431Z,1.81
2022-12-20T02:52:32.572Z,1.90
2022-12-20T02:55:00.353Z,1.87
2022-12-20T02:57:40.896Z,1.89
2022-12-20T03:00:12.600Z,1.92
2022-12-20T03:02:59.410Z,1.93
2022-12-20T03:05:28.022Z,1.92
2022-12-20T03:07:55.151Z,2.00
2022-12-20T03:10:24.711Z,1.95
2022-12-20T03:12:51.540Z,1.87
2022-12-20T03:15:18.727Z,1.89
2022-12-20T03:17:47.107Z,1.98
2022-12-20T03:20:13.773Z,1.91
2022-12-20T03:22:40.408Z,2.01
2022-12-20T03:25:08.205Z,2.02
2022-12-20T03:27:35.523Z,2.00
2022-12-20T03:30:05.441Z,1.96
2022-12-20T03:32:35.065Z,2.00
2022-12-20T03:35:02.147Z,2.02
2022-12-20T03:37:34.941Z,1.93
2022-12-20T03:40:05.643Z,1.99
2022-12-20T03:42:33.147Z,1.92
2022-12-20T03:45:00.157Z,1.91
2022-12-20T03:47:29.131Z,1.93
2022-12-20T03:49:55.720Z,1.89
2022-12-20T03:52:22.531Z,1.99
2022-12-20T03:54:49.550Z,2.07
2022-12-20T03:57:19.416Z,2.10
2022-12-20T03:59:48.554Z,2.05
2022-12-20T04:02:16.883Z,1.98
2022-12-20T04:04:43.708Z,1.98
2022-12-20T04:07:11.046Z,2.07
2022-12-20T04:09:39.635Z,2.05
2022-12-20T04:12:11.359Z,1.99
2022-12-20T04:14:39.408Z,2.05
2022-12-20T04:17:06.723Z,2.10
2022-12-20T04:19:34.204Z,2.04
2022-12-20T04:22:05.535Z,1.95
2022-12-20T04:24:45.711Z,2.00
2022-12-20T04:27:28.273Z,1.96
2022-12-20T04:29:56.622Z,1.95
2022-12-20T04:32:23.366Z,1.96
2022-12-20T04:34:50.340Z,1.94
2022-12-20T04:37:17.493Z,1.89
2022-12-20T04:39:47.873Z,1.93
2022-12-20T04:42:20.699Z,1.98
2022-12-20T04:44:48.362Z,1.96
2022-12-20T04:47:20.164Z,1.86
2022-12-20T04:49:46.847Z,1.87
2022-12-20T04:52:31.979Z,1.85
2022-12-20T04:54:58.754Z,2.01
2022-12-20T04:57:29.766Z,2.02
2022-12-20T04:59:56.517Z,2.08
2022-12-20T05:02:23.457Z,2.18
2022-12-20T05:04:53.501Z,2.09
2022-12-20T05:07:21.163Z,2.13
2022-12-20T05:09:52.316Z,2.20
2022-12-20T05:12:19.027Z,2.25
2022-12-20T05:14:45.783Z,2.19
2022-12-20T05:17:15.656Z,2.12
2022-12-20T05:19:42.349Z,2.09
2022-12-20T05:22:29.637Z,2.08
2022-12-20T05:25:24.044Z,2.11
2022-12-20T05:27:52.681Z,2.01
2022-12-20T05:30:21.984Z,2.04
2022-12-20T05:32:49.441Z,2.05
2022-12-20T05:35:16.428Z,2.13
2022-12-20T05:37:46.257Z,2.17
2022-12-20T05:40:17.789Z,2.14
2022-12-20T05:42:44.805Z,2.15
2022-12-20T05:45:11.809Z,2.11
2022-12-20T05:47:47.946Z,2.10
2022-12-20T05:50:19.101Z,2.08
2022-12-20T05:53:11.028Z,2.05
2022-12-20T05:55:54.059Z,1.97
2022-12-20T05:58:25.373Z,2.07
2022-12-20T06:00:56.381Z,2.01
2022-12-20T06:03:25.348Z,2.01
2022-12-20T06:05:52.221Z,2.08
2022-12-20T06:08:26.031Z,2.04
2022-12-20T06:10:54.292Z,2.09
2022-12-20T06:13:22.093Z,2.05
2022-12-20T06:15:51.377Z,2.09
2022-12-20T06:18:19.398Z,2.07
2022-12-20T06:20:51.536Z,2.08
2022-12-20T06:23:21.497Z,2.20
2022-12-20T06:25:58.157Z,2.26
2022-12-20T06:28:28.586Z,2.20
2022-12-20T06:30:57.156Z,2.21
2022-12-20T06:33:44.874Z,2.17
2022-12-20T06:36:14.333Z,2.15
2022-12-20T06:38:41.663Z,2.19
2022-12-20T06:41:08.405Z,2.13
2022-12-20T06:43:35.711Z,2.15
2022-12-20T06:46:02.970Z,2.19
2022-12-20T06:48:30.179Z,2.17
2022-12-20T06:50:56.875Z,2.12
2022-12-20T06:53:25.758Z,2.13
2022-12-20T06:55:52.437Z,2.11
2022-12-20T06:58:21.334Z,2.04
2022-12-20T07:00:48.729Z,2.15
2022-12-20T07:03:15.621Z,2.19
2022-12-20T07:05:42.379Z,2.16
2022-12-20T07:08:09.253Z,2.16
2022-12-20T07:10:37.556Z,2.09
2022-12-20T07:13:04.273Z,2.04
2022-12-20T07:15:31.475Z,2.02
2022-12-20T07:17:59.656Z,1.95
2022-12-20T07:20:26.399Z,2.05
2022-12-20T07:22:53.299Z,2.02
2022-12-20T07:25:20.068Z,2.09
2022-12-20T07:27:50.166Z,2.12
2022-12-20T07:30:19.047Z,2.06
2022-12-20T07:32:46.688Z,1.94
2022-12-20T07:35:14.741Z,2.02
2022-12-20T07:37:42.088Z,2.00
2022-12-20T07:40:11.157Z,2.00
2022-12-20T07:42:42.872Z,2.06
2022-12-20T07:45:15.668Z,2.11
2022-12-20T07:47:42.404Z,2.06
2022-12-20T07:50:09.540Z,2.02
2022-12-20T07:52:37.205Z,1.97
2022-12-20T07:55:06.938Z,2.00
2022-12-20T07:57:44.741Z,1.95
2022-12-20T08:00:12.456Z,2.06
2022-12-20T08:02:47.564Z,1.95
2022-12-20T08:05:15.752Z,2.19
2022-12-20T08:07:44.547Z,2.23
2022-12-20T08:10:13.077Z,2.25
2022-12-20T08:12:41.129Z,2.31
2022-12-20T08:15:08.889Z,2.31
2022-12-20T08:17:35.617Z,2.38
2022-12-20T08:20:02.360Z,2.28
2022-12-20T08:22:29.020Z,2.35
2022-12-20T08:24:55.694Z,2.31
2022-12-20T08:27:22.312Z,2.29
2022-12-20T08:29:50.091Z,2.26
2022-12-20T08:32:16.954Z,2.35
2022-12-20T08:34:43.595Z,2.43
2022-12-20T08:37:14.801Z,2.52
2022-12-20T08:39:41.965Z,2.42
2022-12-20T08:42:08.528Z,2.51
2022-12-20T08:44:35.194Z,2.53
2022-12-20T08:47:01.864Z,2.53
2022-12-20T08:49:28.813Z,2.64
2022-12-20T08:51:55.676Z,2.65
2022-12-20T08:54:22.511Z,2.64
2022-12-20T08:56:49.091Z,2.69
2022-12-20T08:59:15.751Z,2.64
2022-12-20T09:01:42.489Z,2.58
2022-12-20T09:04:11.195Z,2.57
2022-12-20T09:06:38.665Z,2.52
2022-12-20T09:09:07.016Z,2.61
2022-12-20T09:11:34.114Z,2.56
2022-12-20T09:14:00.850Z,2.64
2022-12-20T09:16:30.428Z,2.68
2022-12-20T09:19:05.054Z,2.63
2022-12-20T09:21:32.947Z,2.62
2022-12-20T09:23:59.732Z,2.72
2022-12-20T09:26:26.817Z,2.72
2022-12-20T09:28:53.989Z,2.68
2022-12-20T09:31:23.996Z,2.72
2022-12-20T09:33:54.801Z,2.70
2022-12-20T09:36:23.363Z,2.73
2022-12-20T09:38:50.529Z,2.76
2022-12-20T09:41:44.173Z,2.88
2022-12-20T09:44:27.090Z,2.81
2022-12-20T09:47:16.534Z,2.84
2022-12-20T09:49:47.588Z,2.85
2022-12-20T09:52:40.371Z,2.99
2022-12-20T09:55:25.440Z,2.98
2022-12-20T09:57:52.065Z,2.93
2022-12-20T10:00:20.520Z,2.97
2022-12-20T10:03:09.820Z,3.04
2022-12-20T10:05:41.183Z,3.06
2022-12-20T10:08:23.733Z,3.07
2022-12-20T10:10:57.310Z,3.12
2022-12-20T10:13:23.965Z,3.10
2022-12-20T10:16:05.152Z,3.21
2022-12-20T10:18:46.416Z,3.19
2022-12-20T10:21:42.124Z,3.19
2022-12-20T10:24:20.159Z,3.18
2022-12-20T10:26:51.340Z,3.22
2022-12-20T10:29:19.495Z,3.24
2022-12-20T10:31:46.156Z,3.22
2022-12-20T10:34:13.116Z,3.26
2022-12-20T10:36:39.725Z,3.30
2022-12-20T10:39:10.251Z,3.27
2022-12-20T10:41:39.982Z,3.29
2022-12-20T10:44:26.129Z,3.28
2022-12-20T10:46:55.809Z,3.30
2022-12-20T10:49:36.340Z,3.37
2022-12-20T10:52:08.911Z,3.44
2022-12-20T10:54:39.690Z,3.48
2022-12-20T10:57:28.556Z,3.54
2022-12-20T11:00:01.790Z,3.58
2022-12-20T11:02:39.971Z,3.65
2022-12-20T11:05:12.817Z,3.71
2022-12-20T11:08:33.766Z,3.83
2022-12-20T11:10:43.933Z,3.87
2022-12-20T11:13:25.892Z,3.85
2022-12-20T11:15:57.248Z,3.89
2022-12-20T11:18:36.630Z,3.93
2022-12-20T11:21:11.138Z,3.96
2022-12-20T11:24:01.675Z,4.01
2022-12-20T11:26:41.057Z,3.94
2022-12-20T11:29:32.778Z,3.99
2022-12-20T11:32:18.058Z,3.98
2022-12-20T11:35:12.867Z,4.01
2022-12-20T11:38:18.906Z,4.03
2022-12-20T11:40:53.666Z,4.01
2022-12-20T11:43:26.032Z,4.01
2022-12-20T11:45:55.422Z,4.01
2022-12-20T11:48:22.029Z,4.07
2022-12-20T11:51:27.520Z,4.09
2022-12-20T11:54:14.871Z,4.05
2022-12-20T11:56:47.979Z,4.13
2022-12-20T11:59:42.886Z,4.18
2022-12-20T12:02:13.942Z,4.21
2022-12-20T12:05:04.927Z,4.34
2022-12-20T12:07:34.034Z,4.33
2022-12-20T12:10:07.828Z,4.26
2022-12-20T12:12:43.483Z,4.25
2022-12-20T12:15:17.266Z,4.30
2022-12-20T12:17:52.392Z,4.37
2022-12-20T12:20:56.595Z,4.44
2022-12-20T12:23:36.323Z,4.47
2022-12-20T12:26:10.514Z,4.44
2022-12-20T12:28:37.508Z,4.48
2022-12-20T12:31:10.753Z,4.44
2022-12-20T12:33:46.562Z,4.47
2022-12-20T12:36:34.576Z,4.61
2022-12-20T12:39:46.232Z,4.58
2022-12-20T12:42:24.742Z,4.58
2022-12-20T12:45:03.562Z,4.61
2022-12-20T12:47:36.869Z,4.57
2022-12-20T12:50:08.993Z,4.68
2022-12-20T12:52:46.106Z,4.70
2022-12-20T12:55:37.760Z,4.76
2022-12-20T12:58:23.746Z,4.89
2022-12-20T13:00:52.447Z,4.92
2022-12-20T13:04:07.348Z,5.00
2022-12-20T13:06:35.589Z,4.99
2022-12-20T13:09:02.191Z,5.07
2022-12-20T13:11:41.448Z,5.09
2022-12-20T13:14:11.988Z,5.16
2022-12-20T13:19:26.925Z,5.35
2022-12-20T13:21:57.331Z,5.38
2022-12-20T13:24:46.800Z,5.48
2022-12-20T13:27:25.974Z,5.42
2022-12-20T13:30:12.155Z,5.29
2022-12-20T13:32:48.413Z,5.30
2022-12-20T13:35:24.232Z,5.31
2022-12-20T13:37:55.244Z,5.24
2022-12-20T13:40:45.478Z,5.25
2022-12-20T13:43:21.852Z,5.31
2022-12-20T13:45:53.252Z,5.32
2022-12-20T13:48:26.529Z,5.27
2022-12-20T13:50:57.508Z,5.25
2022-12-20T13:53:29.871Z,5.24
2022-12-20T13:55:56.667Z,5.22
2022-12-20T13:58:27.755Z,5.27
2022-12-20T14:01:05.583Z,5.25
2022-12-20T14:03:33.253Z,5.26
2022-12-20T14:06:09.139Z,5.21
2022-12-20T14:08:40.409Z,5.28
2022-12-20T14:11:15.659Z,5.26
2022-12-20T14:13:42.838Z,5.20
2022-12-20T14:16:20.322Z,5.25
2022-12-20T14:19:05.609Z,5.29
2022-12-20T14:21:37.075Z,5.27
2022-12-20T14:24:04.426Z,5.25
2022-12-20T14:26:40.798Z,5.24
2022-12-20T14:29:12.659Z,5.23
2022-12-20T14:31:43.108Z,5.23
2022-12-20T14:34:13.079Z,5.23
2022-12-20T14:36:44.565Z,5.27
2022-12-20T14:39:32.409Z,5.21
2022-12-20T14:42:13.459Z,5.17
2022-12-20T14:44:40.537Z,5.11
2022-12-20T14:47:26.395Z,5.15
2022-12-20T14:49:59.332Z,5.13
2022-12-20T14:52:39.193Z,5.06
2022-12-20T14:55:18.791Z,5.00
2022-12-20T14:57:47.156Z,4.98
2022-12-20T15:00:24.484Z,4.91
2022-12-20T15:02:59.204Z,4.89
2022-12-20T15:05:35.371Z,4.82
2022-12-20T15:08:27.352Z,4.86
2022-12-20T15:11:09.497Z,4.81
2022-12-20T15:13:46.763Z,4.73
2022-12-20T15:16:19.797Z,4.65
2022-12-20T15:18:48.183Z,4.64
2022-12-20T15:21:19.884Z,4.60
2022-12-20T15:23:49.802Z,4.57
2022-12-20T15:26:18.668Z,4.52
2022-12-20T15:28:46.128Z,4.52
2022-12-20T15:31:14.834Z,4.44
2022-12-20T15:33:43.274Z,4.48
2022-12-20T15:36:17.900Z,4.49
2022-12-20T15:39:11.231Z,4.51
2022-12-20T15:41:34.197Z,4.38
2022-12-20T15:44:05.458Z,4.25
2022-12-20T15:46:32.619Z,4.35
2022-12-20T15:48:59.444Z,4.29
2022-12-20T15:51:32.258Z,4.39
2022-12-20T15:54:00.523Z,4.43
2022-12-20T15:56:28.931Z,4.41
2022-12-20T15:58:56.753Z,4.52
2022-12-20T16:01:27.754Z,4.54
2022-12-20T16:03:54.595Z,4.54
2022-12-20T16:06:21.267Z,4.52
2022-12-20T16:08:48.075Z,4.54
2022-12-20T16:11:22.381Z,4.43
2022-12-20T16:13:49.084Z,4.44
2022-12-20T16:16:18.226Z,4.37
2022-12-20T16:18:45.355Z,4.45
2022-12-20T16:21:20.829Z,4.50
2022-12-20T16:23:47.487Z,4.52
2022-12-20T16:26:16.139Z,4.43
2022-12-20T16:28:43.318Z,4.44
2022-12-20T16:31:17.721Z,4.44
2022-12-20T16:33:44.490Z,4.45
2022-12-20T16:36:11.681Z,4.39
2022-12-20T16:38:38.506Z,4.33
2022-12-20T16:41:16.946Z,4.38
2022-12-20T16:43:44.949Z,4.38
2022-12-20T16:46:18.168Z,4.36
2022-12-20T16:48:45.610Z,4.35
2022-12-20T16:51:28.722Z,4.35
2022-12-20T16:54:19.255Z,4.36
2022-12-20T16:56:47.709Z,4.50
2022-12-20T16:59:20.718Z,4.46
2022-12-20T17:01:51.062Z,4.46
2022-12-20T17:04:18.868Z,4.42
2022-12-20T17:06:46.745Z,4.42
2022-12-20T17:11:59.070Z,4.43
2022-12-20T17:14:25.834Z,4.45
2022-12-20T17:16:52.618Z,4.45
2022-12-20T17:19:19.529Z,4.44
2022-12-20T17:24:33.163Z,4.46
2022-12-20T17:27:00.489Z,4.46
2022-12-20T17:29:27.398Z,4.38
2022-12-20T17:31:54.269Z,4.41
2022-12-20T17:34:26.779Z,4.44
2022-12-20T17:36:55.641Z,4.35
2022-12-20T17:39:23.682Z,4.41
2022-12-20T17:41:51.970Z,4.39
2022-12-20T17:44:21.370Z,4.39
2022-12-20T17:46:48.376Z,4.50
2022-12-20T17:49:15.681Z,4.40
2022-12-20T17:51:43.344Z,4.48
2022-12-20T17:54:19.037Z,4.45
2022-12-20T17:56:46.814Z,4.45
2022-12-20T17:59:14.525Z,4.47
2022-12-20T18:01:43.112Z,4.44
2022-12-20T18:04:13.405Z,4.42
2022-12-20T18:06:42.711Z,4.46
2022-12-20T18:09:21.516Z,4.45
2022-12-20T18:11:48.656Z,4.44
2022-12-20T18:14:15.909Z,4.43
2022-12-20T18:16:42.946Z,4.42
2022-12-20T18:19:16.196Z,4.43
2022-12-20T18:21:42.979Z,4.39
2022-12-20T18:24:15.184Z,4.42
2022-12-20T18:26:42.885Z,4.39
2022-12-20T18:29:10.760Z,4.41
2022-12-20T18:31:37.777Z,4.47
2022-12-20T18:34:05.146Z,4.53
2022-12-20T18:36:37.172Z,4.53
2022-12-20T18:39:06.953Z,4.56
2022-12-20T18:41:35.604Z,4.47
2022-12-20T18:44:05.907Z,4.48
2022-12-20T18:46:33.888Z,4.39
2022-12-20T18:49:01.660Z,4.42
2022-12-20T18:51:36.779Z,4.39
2022-12-20T18:54:05.955Z,4.42
2022-12-20T18:56:36.058Z,4.40
2022-12-20T18:59:10.882Z,4.38
2022-12-20T19:01:40.325Z,4.42
2022-12-20T19:04:07.916Z,4.48
2022-12-20T19:06:35.822Z,4.50
2022-12-20T19:09:05.226Z,4.45
2022-12-20T19:11:32.152Z,4.43
2022-12-20T19:13:58.682Z,4.46
2022-12-20T19:16:28.905Z,4.45
2022-12-20T19:18:56.338Z,4.42
2022-12-20T19:21:26.026Z,4.55
2022-12-20T19:23:55.677Z,4.49
2022-12-20T19:26:25.561Z,4.43
2022-12-20T19:28:52.350Z,4.43
2022-12-20T19:31:24.170Z,4.42
2022-12-20T19:33:53.836Z,4.45
2022-12-20T19:36:26.334Z,4.37
2022-12-20T19:38:56.002Z,4.43
2022-12-20T19:41:24.937Z,4.44
2022-12-20T19:43:51.866Z,4.50
2022-12-20T19:46:28.303Z,4.42
2022-12-20T19:48:57.143Z,4.53
2022-12-20T19:51:24.026Z,4.46
2022-12-20T19:53:51.853Z,4.44
2022-12-20T19:56:21.601Z,4.52
2022-12-20T19:58:48.897Z,4.51
2022-12-20T20:01:17.956Z,4.46
2022-12-20T20:03:45.410Z,4.39
2022-12-20T20:06:13.636Z,4.37
2022-12-20T20:08:41.321Z,4.42
2022-12-20T20:11:10.147Z,4.45
2022-12-20T20:13:38.532Z,4.47
2022-12-20T20:16:06.487Z,4.47
2022-12-20T20:18:35.580Z,4.44
2022-12-20T20:21:10.578Z,4.47
2022-12-20T20:23:37.913Z,4.43
2022-12-20T20:26:10.912Z,4.43
2022-12-20T20:28:44.422Z,4.50
2022-12-20T20:31:14.266Z,4.54
2022-12-20T20:33:41.958Z,4.52
2022-12-20T20:36:12.451Z,4.54
2022-12-20T20:38:39.275Z,4.54
2022-12-20T20:41:05.882Z,4.46
2022-12-20T20:43:36.756Z,4.57
2022-12-20T20:46:07.422Z,4.52
2022-12-20T20:48:35.305Z,4.57
2022-12-20T20:51:02.316Z,4.49
2022-12-20T20:53:33.341Z,4.55
2022-12-20T20:56:02.914Z,4.51
2022-12-20T20:58:29.642Z,4.52
2022-12-20T21:00:58.812Z,4.54
2022-12-20T21:03:27.358Z,4.60
2022-12-20T21:08:41.401Z,4.52
2022-12-20T21:11:09.337Z,4.44
2022-12-20T21:13:36.413Z,4.42
2022-12-20T21:16:14.479Z,4.33
2022-12-20T21:18:41.315Z,4.39
2022-12-20T21:21:13.026Z,4.40
2022-12-20T21:23:44.364Z,4.51
2022-12-20T21:26:11.116Z,4.45
2022-12-20T21:28:37.908Z,4.44
2022-12-20T21:31:09.168Z,4.55
2022-12-20T21:33:36.038Z,4.59
2022-12-20T21:36:14.047Z,4.51
2022-12-20T21:38:41.398Z,4.52
2022-12-20T21:41:13.311Z,4.56
2022-12-20T21:43:40.396Z,4.53
2022-12-20T21:46:11.724Z,4.56
2022-12-20T21:48:39.819Z,4.59
2022-12-20T21:51:12.190Z,4.62
2022-12-20T21:53:47.282Z,4.60
2022-12-20T21:56:15.973Z,4.49
2022-12-20T21:58:44.116Z,4.41
2022-12-20T22:01:14.153Z,4.42
2022-12-20T22:03:41.312Z,4.41
2022-12-20T22:06:08.072Z,4.42
2022-12-20T22:08:34.787Z,4.43
2022-12-20T22:11:05.734Z,4.44
2022-12-20T22:13:40.466Z,4.50
2022-12-20T22:16:12.214Z,4.62
2022-12-20T22:18:40.327Z,4.59
2022-12-20T22:21:09.412Z,4.63
2022-12-20T22:23:37.621Z,4.66
2022-12-20T22:26:06.728Z,4.64
2022-12-20T22:28:33.734Z,4.63
2022-12-20T22:31:00.439Z,4.58
2022-12-20T22:33:27.321Z,4.58
2022-12-20T22:35:54.037Z,4.57
2022-12-20T22:38:20.802Z,4.59
2022-12-20T22:40:48.098Z,4.63
2022-12-20T22:43:14.982Z,4.56
2022-12-20T22:45:41.722Z,4.57
2022-12-20T22:48:08.457Z,4.56
2022-12-20T22:50:35.305Z,4.52
2022-12-20T22:53:02.076Z,4.57
2022-12-20T22:55:28.799Z,4.65
2022-12-20T22:57:55.567Z,4.62
2022-12-20T23:00:22.289Z,4.64
2022-12-20T23:02:49.104Z,4.68
2022-12-20T23:05:15.875Z,4.70
2022-12-20T23:07:42.553Z,4.68
2022-12-20T23:10:29.761Z,4.62
2022-12-20T23:13:14.782Z,4.57
2022-12-20T23:15:41.510Z,4.60
2022-12-20T23:18:08.182Z,4.71
2022-12-20T23:20:53.501Z,4.65
2022-12-20T23:23:20.202Z,4.63
2022-12-20T23:25:46.782Z,4.56
2022-12-20T23:28:13.551Z,4.56
2022-12-20T23:30:40.179Z,4.64
2022-12-20T23:33:06.831Z,4.67
2022-12-20T23:35:33.576Z,4.60
2022-12-20T23:38:00.332Z,4.56
2022-12-20T23:40:26.953Z,4.59
2022-12-20T23:42:54.680Z,4.54
2022-12-20T23:45:21.381Z,4.57
2022-12-20T23:47:48.004Z,4.57
2022-12-20T23:50:14.681Z,4.55
2022-12-20T23:52:41.501Z,4.56
2022-12-20T23:55:08.331Z,4.41
2022-12-20T23:57:35.114Z,4.47
